Sunderland, Massachusetts
Current Conditions -  °F | °C
As of 4:52 AM on Monday 26 Jan 2015 (Local Time) from KORE Reporting Station
Clear Clear  
Wind Chill:   Ceiling: Unl
Heat Index:   Visibility: 10mi
Dew Point: -3°   Wind: 0mph
Humidity: 61%   Direction: NA
Pressure: 30.07"   Gusts: NA
Location:  42.47°N, 72.58°W
Report Text: KORE 260952Z AUTO 00000KT 10SM CLR M13/M19 A3007 RMK AO2 SLP193 T11331194
Loading
Personal Weather Stations






























Interactive Weather Map New forecast layout! Learn more

10-Day Weather Forecast

Advertisements
Track Severe Weather on mobile